Time;durP1;ratioP1;P1;durP2;ratioP2;P2;SDS_P1;SDS_P2;PMS_P1;PMS_P2;Temp;Humidity;BMP_temperature;BMP_pressure;BME280_temperature;BME280_humidity;BME280_pressure;Samples;Min_cycle;Max_cycle;Signal;HPM_P1;HPM_P2
2023/05/14 00:00:59;;;;;;;4.40;2.60;;;;;;;16.15;41.57;95339.97;5021637;28;20229;-67
2023/05/14 00:03:24;;;;;;;3.13;2.50;;;;;;;16.12;41.80;95335.84;5021637;28;20233;-67
2023/05/14 00:05:50;;;;;;;3.45;2.90;;;;;;;16.14;42.27;95340.97;5022092;28;20225;-67
2023/05/14 00:08:15;;;;;;;3.67;2.85;;;;;;;16.11;41.84;95339.50;5025578;28;20772;-67
2023/05/14 00:10:41;;;;;;;4.28;2.65;;;;;;;16.19;41.79;95336.78;5022689;28;20248;-68
2023/05/14 00:13:06;;;;;;;3.10;2.50;;;;;;;16.09;42.25;95337.03;5025933;28;20239;-66
2023/05/14 00:15:31;;;;;;;2.92;2.58;;;;;;;16.12;42.09;95335.84;5026980;28;20209;-66
2023/05/14 00:17:57;;;;;;;2.90;2.70;;;;;;;16.06;42.00;95328.59;5039006;28;20216;-66
2023/05/14 00:20:22;;;;;;;5.38;3.08;;;;;;;15.99;42.22;95325.84;5022503;28;20221;-66
2023/05/14 00:22:48;;;;;;;3.58;2.80;;;;;;;16.03;42.35;95336.91;5045448;28;20197;-66
2023/05/14 00:25:13;;;;;;;3.28;2.53;;;;;;;16.04;42.33;95327.97;5039831;28;20216;-67
2023/05/14 00:27:39;;;;;;;3.00;2.70;;;;;;;15.95;42.40;95319.22;5026744;28;20226;-67
2023/05/14 00:30:08;;;;;;;3.60;2.80;;;;;;;16.02;42.42;95322.81;5019387;28;20237;-68
2023/05/14 00:32:33;;;;;;;3.90;2.78;;;;;;;15.98;42.30;95316.22;5027614;28;20246;-66
2023/05/14 00:34:59;;;;;;;2.80;2.45;;;;;;;16.02;42.16;95311.41;5027044;28;20285;-67
2023/05/14 00:37:25;;;;;;;3.05;2.75;;;;;;;16.03;42.11;95310.38;5027322;28;20261;-67
2023/05/14 00:39:51;;;;;;;2.92;2.45;;;;;;;16.02;41.96;95304.25;5026538;28;20844;-66
2023/05/14 00:42:16;;;;;;;2.58;2.38;;;;;;;16.05;42.17;95314.50;5018635;28;20225;-67
2023/05/14 00:44:41;;;;;;;3.67;2.85;;;;;;;16.07;42.08;95311.69;5021275;28;20236;-66
2023/05/14 00:47:07;;;;;;;2.83;2.58;;;;;;;16.00;42.17;95310.75;5029231;28;20217;-66
2023/05/14 00:49:33;;;;;;;6.22;2.88;;;;;;;16.04;42.11;95304.09;5022967;28;20190;-68
2023/05/14 00:51:59;;;;;;;3.65;2.50;;;;;;;16.00;41.90;95310.75;5017492;28;20222;-67
2023/05/14 00:54:25;;;;;;;3.83;2.60;;;;;;;16.00;41.71;95300.94;5027666;28;20218;-66
2023/05/14 00:56:52;;;;;;;3.75;2.85;;;;;;;15.95;41.90;95297.19;5030684;28;20248;-67
2023/05/14 00:59:17;;;;;;;2.95;2.53;;;;;;;15.83;41.60;95302.91;5025706;28;20218;-66
2023/05/14 01:01:43;;;;;;;2.92;2.63;;;;;;;15.83;41.52;95299.44;5030768;28;20191;-68
2023/05/14 01:04:10;;;;;;;3.40;2.72;;;;;;;15.83;41.68;95294.97;5027963;28;20229;-68
2023/05/14 01:07:03;;;;;;;2.53;2.30;;;;;;;15.73;41.44;95289.06;5023046;28;20221;-67
2023/05/14 01:09:35;;;;;;;3.17;2.75;;;;;;;15.69;41.62;95301.03;5019533;28;20739;-67
2023/05/14 01:12:17;;;;;;;6.80;2.42;;;;;;;15.74;41.46;95296.00;5044169;28;20236;-68
2023/05/14 01:15:11;;;;;;;2.58;2.38;;;;;;;15.79;41.26;95293.66;5020831;28;20665;-65
2023/05/14 01:17:52;;;;;;;2.97;2.30;;;;;;;15.71;41.38;95292.88;4999401;28;20222;-64
2023/05/14 01:20:18;;;;;;;2.92;2.47;;;;;;;15.71;40.93;95290.25;4981407;28;20727;-64
2023/05/14 01:22:44;;;;;;;3.22;2.50;;;;;;;15.66;41.29;95301.34;4986563;28;20279;-64
2023/05/14 01:25:09;;;;;;;2.70;2.47;;;;;;;15.53;41.39;95303.75;4996889;28;20281;-64
2023/05/14 01:27:45;;;;;;;2.47;2.28;;;;;;;15.54;41.58;95300.94;5000054;28;20246;-63
2023/05/14 01:30:18;;;;;;;2.78;2.40;;;;;;;15.45;41.55;95315.25;4981778;28;20219;-64
2023/05/14 01:32:47;;;;;;;2.72;2.22;;;;;;;15.48;41.66;95319.38;4995531;28;20228;-64
2023/05/14 01:35:13;;;;;;;3.90;2.28;;;;;;;15.59;41.24;95313.66;4980455;28;20219;-65
2023/05/14 01:37:40;;;;;;;2.85;2.10;;;;;;;15.52;41.23;95313.53;4996921;28;20201;-64
2023/05/14 01:40:08;;;;;;;2.78;2.08;;;;;;;15.51;41.27;95314.53;4997088;28;20246;-64
2023/05/14 01:42:34;;;;;;;3.63;2.17;;;;;;;15.61;41.35;95314.28;4977402;28;20281;-66
2023/05/14 01:45:01;;;;;;;2.40;2.13;;;;;;;15.69;41.42;95327.56;5000154;28;20227;-65
2023/05/14 01:47:26;;;;;;;3.15;2.30;;;;;;;15.61;41.09;95312.47;4981745;28;20215;-65
2023/05/14 01:49:52;;;;;;;3.65;2.00;;;;;;;15.53;41.31;95309.88;5001318;28;20187;-67
2023/05/14 01:52:20;;;;;;;3.00;1.60;;;;;;;15.42;41.47;95308.47;4988182;28;20193;-67
2023/05/14 01:54:46;;;;;;;4.10;2.10;;;;;;;15.30;41.94;95311.66;5022740;28;20240;-67
2023/05/14 01:57:11;;;;;;;2.33;1.90;;;;;;;15.38;42.62;95317.75;5031246;28;20248;-66
2023/05/14 01:59:37;;;;;;;3.45;2.30;;;;;;;15.39;43.44;95324.69;5028091;28;20230;-66
2023/05/14 02:02:02;;;;;;;2.22;2.03;;;;;;;15.47;43.78;95321.16;5032245;28;20271;-67
2023/05/14 02:04:28;;;;;;;5.47;2.13;;;;;;;15.38;45.46;95316.94;5028604;28;20230;-66
2023/05/14 02:06:53;;;;;;;2.63;2.30;;;;;;;15.41;45.63;95321.88;5028919;28;20228;-66
2023/05/14 02:09:18;;;;;;;2.75;2.00;;;;;;;15.36;45.67;95314.44;5026211;28;20304;-66
2023/05/14 02:11:44;;;;;;;3.60;2.50;;;;;;;15.19;46.74;95320.84;5029018;28;20319;-65
2023/05/14 02:14:09;;;;;;;4.95;2.42;;;;;;;15.25;46.07;95330.72;5023659;28;20929;-65
2023/05/14 02:16:35;;;;;;;3.53;2.50;;;;;;;15.24;46.06;95318.50;5026812;28;20209;-66
2023/05/14 02:19:00;;;;;;;2.60;2.10;;;;;;;15.13;45.55;95311.75;5025123;28;20218;-66
2023/05/14 02:21:26;;;;;;;2.50;2.08;;;;;;;14.86;45.40;95313.03;5029519;28;20289;-65
2023/05/14 02:23:51;;;;;;;2.90;2.10;;;;;;;14.70;45.61;95326.28;5039250;28;20224;-67
2023/05/14 02:26:16;;;;;;;2.80;2.20;;;;;;;14.80;45.79;95334.03;5025188;28;20269;-66
2023/05/14 02:28:42;;;;;;;2.25;1.98;;;;;;;14.75;46.28;95337.19;5026313;28;20193;-66
2023/05/14 02:31:07;;;;;;;2.30;2.00;;;;;;;14.86;45.62;95334.19;5021368;28;20226;-66
2023/05/14 02:33:33;;;;;;;2.33;1.92;;;;;;;14.92;46.64;95336.16;5024884;28;20375;-66
2023/05/14 02:35:58;;;;;;;2.35;2.15;;;;;;;14.96;45.75;95331.34;5021492;28;20221;-66
2023/05/14 02:38:25;;;;;;;2.28;2.08;;;;;;;14.89;46.02;95341.81;5025648;28;20234;-66
2023/05/14 02:40:50;;;;;;;2.53;2.10;;;;;;;14.82;45.32;95355.88;5026387;28;20189;-66
2023/05/14 02:43:16;;;;;;;2.80;2.17;;;;;;;14.88;45.13;95348.06;5030572;28;20188;-65
2023/05/14 02:45:41;;;;;;;2.65;1.90;;;;;;;14.91;44.84;95355.66;5045895;28;20358;-65
2023/05/14 02:48:07;;;;;;;3.30;2.15;;;;;;;14.89;45.00;95355.03;5024517;28;20435;-66
2023/05/14 02:50:32;;;;;;;4.40;2.25;;;;;;;14.99;44.70;95355.69;5025442;28;20225;-66
2023/05/14 02:52:58;;;;;;;3.03;2.60;;;;;;;14.95;44.71;95351.69;5031051;28;20182;-66
2023/05/14 02:55:25;;;;;;;3.53;2.00;;;;;;;14.99;44.49;95357.47;5033494;28;20177;-66
2023/05/14 02:57:52;;;;;;;2.20;2.00;;;;;;;14.97;44.46;95362.13;5026233;28;20213;-66
2023/05/14 03:00:18;;;;;;;2.92;2.10;;;;;;;14.92;44.94;95367.94;5039134;28;20241;-66
2023/05/14 03:02:43;;;;;;;2.35;2.15;;;;;;;14.71;45.43;95367.66;5024448;28;20224;-65
2023/05/14 03:05:09;;;;;;;3.25;2.42;;;;;;;14.71;46.28;95362.38;5040331;28;20336;-68
2023/05/14 03:07:34;;;;;;;3.78;2.50;;;;;;;14.69;46.23;95364.34;5041729;28;20288;-66
2023/05/14 03:10:00;;;;;;;3.70;2.28;;;;;;;14.73;46.20;95357.72;5027698;28;20219;-67
2023/05/14 03:12:25;;;;;;;4.05;2.40;;;;;;;14.75;45.83;95350.44;5023126;28;20229;-66
2023/05/14 03:14:51;;;;;;;5.88;2.28;;;;;;;14.46;46.26;95345.66;5022785;28;20242;-66
2023/05/14 03:17:16;;;;;;;3.40;2.25;;;;;;;14.52;46.09;95337.91;5044406;28;20586;-66
2023/05/14 03:19:42;;;;;;;2.42;2.22;;;;;;;14.50;46.31;95329.28;5027147;28;20202;-67
2023/05/14 03:22:07;;;;;;;2.38;2.15;;;;;;;14.63;45.65;95333.28;5028727;28;20230;-67
2023/05/14 03:24:33;;;;;;;2.30;2.10;;;;;;;14.59;45.73;95346.00;5027232;28;20688;-66
2023/05/14 03:26:59;;;;;;;2.65;2.10;;;;;;;14.57;46.56;95342.72;5042418;28;20244;-66
2023/05/14 03:29:24;;;;;;;2.50;2.30;;;;;;;14.61;47.10;95336.06;5022194;28;20234;-66
2023/05/14 03:31:50;;;;;;;3.33;2.45;;;;;;;14.53;48.38;95342.19;5026619;28;20267;-67
2023/05/14 03:34:15;;;;;;;3.15;2.38;;;;;;;14.38;48.88;95349.16;5024168;28;20215;-67
2023/05/14 03:36:41;;;;;;;3.33;2.47;;;;;;;14.25;49.26;95351.47;5044511;28;20225;-66
2023/05/14 03:39:06;;;;;;;2.28;2.08;;;;;;;14.24;49.94;95360.38;5020123;28;20225;-66
2023/05/14 03:41:32;;;;;;;2.90;2.28;;;;;;;14.21;50.24;95358.91;5039183;28;20222;-66
2023/05/14 03:43:57;;;;;;;4.40;2.25;;;;;;;14.25;50.06;95362.06;5031509;28;20210;-67
2023/05/14 03:46:23;;;;;;;3.08;2.30;;;;;;;14.20;50.21;95351.16;5019614;28;20189;-67
2023/05/14 03:48:48;;;;;;;3.58;2.38;;;;;;;13.90;50.57;95349.00;5016281;28;20214;-67
2023/05/14 03:51:14;;;;;;;3.05;2.35;;;;;;;14.05;50.22;95346.50;5023821;28;20218;-67
2023/05/14 03:53:40;;;;;;;5.55;2.55;;;;;;;14.07;50.65;95349.00;5028268;28;20219;-66
2023/05/14 03:56:05;;;;;;;2.72;2.47;;;;;;;14.13;49.53;95350.97;5028437;28;20778;-66
2023/05/14 03:58:31;;;;;;;2.92;2.53;;;;;;;14.10;49.34;95354.78;5041147;28;20263;-67
2023/05/14 04:00:56;;;;;;;3.60;2.50;;;;;;;14.06;49.35;95356.09;5033822;28;20258;-65
2023/05/14 04:03:22;;;;;;;2.67;2.30;;;;;;;14.09;48.88;95342.56;5025421;28;20244;-66
2023/05/14 04:05:47;;;;;;;3.08;2.47;;;;;;;14.18;49.04;95356.59;5027148;28;20220;-66
2023/05/14 04:08:13;;;;;;;2.33;2.13;;;;;;;14.18;48.38;95347.84;5020879;28;20217;-66
2023/05/14 04:10:38;;;;;;;3.53;2.30;;;;;;;14.28;48.38;95356.44;5027337;28;20181;-66
2023/05/14 04:13:04;;;;;;;4.53;2.58;;;;;;;14.37;47.82;95358.06;5024784;28;20256;-65
2023/05/14 04:15:29;;;;;;;3.20;2.35;;;;;;;14.21;48.60;95358.09;5038151;28;20229;-66
2023/05/14 04:17:55;;;;;;;2.50;2.28;;;;;;;14.21;48.05;95356.25;5026268;28;20222;-65
2023/05/14 04:20:20;;;;;;;5.05;3.08;;;;;;;14.25;48.27;95368.16;5019839;28;20231;-66
2023/05/14 04:22:46;;;;;;;2.40;2.20;;;;;;;14.15;48.35;95354.28;5021291;28;20194;-66
2023/05/14 04:25:11;;;;;;;2.70;2.35;;;;;;;14.25;48.09;95359.41;5022173;28;20208;-66
2023/05/14 04:27:36;;;;;;;2.67;1.90;;;;;;;14.25;48.49;95365.53;5023297;28;20240;-67
2023/05/14 04:30:02;;;;;;;2.22;2.03;;;;;;;14.29;48.39;95371.31;5027042;28;20214;-66
2023/05/14 04:32:29;;;;;;;4.25;3.33;;;;;;;14.09;47.83;95366.34;5018662;28;20256;-67
2023/05/14 04:34:54;;;;;;;2.88;2.40;;;;;;;14.12;48.33;95373.13;5025564;28;20176;-65
2023/05/14 04:37:20;;;;;;;2.65;2.30;;;;;;;14.17;48.48;95376.09;5030268;28;20186;-66
2023/05/14 04:39:45;;;;;;;3.22;2.33;;;;;;;14.06;50.36;95385.19;5022775;28;20282;-65
2023/05/14 04:42:11;;;;;;;2.58;2.38;;;;;;;14.19;50.31;95389.16;5024819;28;20226;-65
2023/05/14 04:44:36;;;;;;;2.70;2.50;;;;;;;14.21;50.50;95381.88;5020071;28;20281;-65
2023/05/14 04:47:03;;;;;;;3.53;2.63;;;;;;;14.13;51.71;95388.00;5025491;28;20772;-65
2023/05/14 04:49:29;;;;;;;2.45;2.10;;;;;;;14.19;51.38;95399.72;5025920;28;20198;-66
2023/05/14 04:51:54;;;;;;;2.88;2.60;;;;;;;14.07;51.72;95402.69;5026536;28;20245;-66
2023/05/14 04:54:20;;;;;;;3.63;2.60;;;;;;;14.07;52.11;95408.00;5028118;28;20217;-64
2023/05/14 04:56:46;;;;;;;3.78;2.60;;;;;;;13.98;52.10;95400.19;5045558;28;20230;-65
2023/05/14 04:59:12;;;;;;;3.83;2.85;;;;;;;14.07;52.62;95413.28;5025798;28;20221;-65
2023/05/14 05:01:37;;;;;;;3.45;2.78;;;;;;;14.04;54.14;95415.44;5043029;28;20189;-65
2023/05/14 05:04:03;;;;;;;4.45;2.90;;;;;;;14.02;53.36;95420.88;5023756;28;20303;-65
2023/05/14 05:06:28;;;;;;;4.20;2.58;;;;;;;13.85;54.04;95427.13;5016567;28;20230;-66
2023/05/14 05:08:54;;;;;;;2.55;2.35;;;;;;;13.84;53.42;95428.09;5022984;28;20226;-66
2023/05/14 05:11:20;;;;;;;3.70;2.40;;;;;;;13.89;54.69;95431.09;5022198;28;20313;-67
2023/05/14 05:13:45;;;;;;;3.97;2.83;;;;;;;13.64;55.81;95438.97;5026211;28;20182;-67
2023/05/14 05:16:11;;;;;;;3.33;2.63;;;;;;;13.72;55.74;95455.84;5026091;28;20227;-66
2023/05/14 05:18:37;;;;;;;3.63;2.80;;;;;;;13.71;55.37;95454.97;5025020;28;20226;-66
2023/05/14 05:21:03;;;;;;;4.32;3.08;;;;;;;13.72;57.19;95456.66;5041988;28;20270;-67
2023/05/14 05:23:28;;;;;;;3.25;2.80;;;;;;;13.71;56.24;95449.69;5039575;28;20226;-66
2023/05/14 05:25:54;;;;;;;4.55;2.97;;;;;;;13.71;57.04;95460.28;5045164;28;20198;-66
2023/05/14 05:28:19;;;;;;;4.95;3.50;;;;;;;13.64;57.79;95468.03;5025983;28;20190;-66
2023/05/14 05:30:44;;;;;;;3.97;3.40;;;;;;;13.66;58.60;95460.78;5030482;28;20221;-66
2023/05/14 05:33:11;;;;;;;4.70;3.35;;;;;;;13.50;59.49;95462.50;5028792;28;20229;-66
2023/05/14 05:35:36;;;;;;;3.95;3.15;;;;;;;13.48;60.86;95459.22;5031156;28;20285;-66
2023/05/14 05:38:02;;;;;;;5.45;3.38;;;;;;;13.51;60.44;95465.00;5021060;28;20193;-66
2023/05/14 05:40:27;;;;;;;3.92;3.50;;;;;;;13.54;60.26;95464.69;5020828;28;20210;-65
2023/05/14 05:42:53;;;;;;;5.10;3.80;;;;;;;13.50;61.68;95471.28;5027993;28;20231;-67
2023/05/14 05:45:18;;;;;;;5.90;3.58;;;;;;;13.49;61.56;95466.13;5027785;28;20232;-67
2023/05/14 05:47:44;;;;;;;5.20;3.80;;;;;;;13.43;61.65;95470.25;5022780;28;20276;-66
2023/05/14 05:50:10;;;;;;;4.68;3.30;;;;;;;13.44;61.69;95467.47;5029104;28;20222;-66
2023/05/14 05:52:35;;;;;;;4.82;3.58;;;;;;;13.43;61.66;95481.63;5029014;28;20193;-66
2023/05/14 05:55:01;;;;;;;4.90;3.63;;;;;;;13.42;62.22;95479.16;5025000;28;20209;-66
2023/05/14 05:57:26;;;;;;;4.38;3.58;;;;;;;13.39;62.29;95477.66;5028146;28;20225;-66
2023/05/14 05:59:52;;;;;;;5.53;3.75;;;;;;;13.34;62.04;95468.53;5028052;28;20221;-66
2023/05/14 06:02:18;;;;;;;6.35;3.95;;;;;;;13.23;62.68;95467.81;5028141;28;20229;-66
2023/05/14 06:04:44;;;;;;;5.00;3.80;;;;;;;13.22;63.24;95470.59;5032854;28;20255;-69
2023/05/14 06:07:09;;;;;;;4.57;4.18;;;;;;;13.15;64.19;95467.78;5026076;28;20279;-66
2023/05/14 06:09:34;;;;;;;4.63;4.22;;;;;;;13.17;64.27;95465.78;5022584;28;20214;-67
2023/05/14 06:12:00;;;;;;;5.90;4.05;;;;;;;13.21;63.52;95475.06;5029650;28;20227;-66
2023/05/14 06:14:25;;;;;;;4.75;4.15;;;;;;;13.35;63.42;95478.97;5045862;28;20228;-67
2023/05/14 06:16:51;;;;;;;4.22;3.83;;;;;;;13.16;63.86;95471.22;5026406;28;20192;-67
2023/05/14 06:19:16;;;;;;;4.53;4.13;;;;;;;13.07;63.24;95469.50;5034430;28;20169;-66
2023/05/14 06:21:42;;;;;;;4.78;4.20;;;;;;;13.06;63.62;95466.06;5021704;28;20217;-66
2023/05/14 06:24:07;;;;;;;5.82;4.13;;;;;;;13.00;63.81;95461.41;5030087;28;20304;-66
2023/05/14 06:26:33;;;;;;;5.50;4.30;;;;;;;13.02;63.75;95459.44;5025707;28;20247;-67
2023/05/14 06:28:58;;;;;;;7.28;4.05;;;;;;;12.98;63.02;95458.09;5026900;28;20190;-67
2023/05/14 06:31:24;;;;;;;4.95;4.45;;;;;;;13.08;62.99;95471.19;5031071;28;20179;-67
2023/05/14 06:33:49;;;;;;;5.13;4.22;;;;;;;12.98;63.71;95472.09;5024082;28;20228;-66
2023/05/14 06:36:15;;;;;;;5.07;4.22;;;;;;;12.96;64.32;95482.00;5031552;28;20332;-65
2023/05/14 06:38:40;;;;;;;8.45;5.38;;;;;;;12.91;64.96;95478.16;5024143;28;20283;-66
2023/05/14 06:41:05;;;;;;;6.00;5.40;;;;;;;12.93;64.50;95487.56;5024299;28;20225;-66
2023/05/14 06:43:31;;;;;;;7.53;4.53;;;;;;;12.97;64.42;95467.00;5047093;28;20178;-66
2023/05/14 06:45:56;;;;;;;7.80;5.18;;;;;;;13.09;66.01;95472.84;5045731;28;20267;-66
2023/05/14 06:48:21;;;;;;;6.28;4.90;;;;;;;13.15;65.76;95473.06;5026490;28;20213;-66
2023/05/14 06:50:48;;;;;;;6.70;4.90;;;;;;;13.21;65.66;95475.06;5027093;28;20218;-66
2023/05/14 06:53:14;;;;;;;5.82;5.22;;;;;;;13.23;66.26;95465.19;5024369;28;20221;-66
2023/05/14 06:55:39;;;;;;;5.25;4.75;;;;;;;13.17;65.92;95455.22;5027671;28;20201;-66
2023/05/14 06:58:08;;;;;;;8.70;6.10;;;;;;;13.11;66.61;95453.22;5019227;28;20226;-66
2023/05/14 07:00:33;;;;;;;6.22;5.60;;;;;;;13.23;66.72;95448.47;5027456;28;20225;-67
2023/05/14 07:02:59;;;;;;;6.72;5.63;;;;;;;13.19;65.93;95439.22;5027851;28;20270;-67
2023/05/14 07:05:25;;;;;;;6.22;4.88;;;;;;;13.33;65.45;95449.22;5026642;28;20447;-66
2023/05/14 07:07:50;;;;;;;8.30;5.45;;;;;;;13.41;65.98;95453.72;5023468;28;20196;-67
2023/05/14 07:10:16;;;;;;;5.85;5.03;;;;;;;13.50;65.84;95454.56;5030151;28;20292;-66
2023/05/14 07:12:41;;;;;;;7.55;5.68;;;;;;;13.45;66.29;95445.31;5024074;28;20286;-66
2023/05/14 07:15:07;;;;;;;5.30;4.80;;;;;;;13.60;65.83;95447.34;5026341;28;20253;-66
2023/05/14 07:17:33;;;;;;;7.60;5.53;;;;;;;13.55;65.70;95458.41;5038755;28;20236;-66
2023/05/14 07:19:58;;;;;;;6.55;5.90;;;;;;;13.46;65.84;95480.50;5025896;28;20184;-66
2023/05/14 07:22:24;;;;;;;7.20;5.32;;;;;;;13.43;65.65;95494.84;5024092;28;20285;-66
2023/05/14 07:24:49;;;;;;;6.40;5.80;;;;;;;13.39;66.03;95498.81;5021270;28;20221;-65
2023/05/14 07:27:16;;;;;;;12.02;9.75;;;;;;;13.40;66.18;95484.59;5021846;28;20221;-65
2023/05/14 07:29:41;;;;;;;8.32;7.47;;;;;;;13.27;66.66;95478.09;5023976;28;20692;-65
2023/05/14 07:32:07;;;;;;;7.20;6.38;;;;;;;13.33;66.96;95474.81;5022344;28;20228;-66
2023/05/14 07:34:32;;;;;;;8.48;6.50;;;;;;;13.14;67.82;95474.03;5039782;28;20193;-67
2023/05/14 07:36:58;;;;;;;7.40;6.60;;;;;;;13.13;67.86;95467.09;5004928;28;20224;-66
2023/05/14 07:39:23;;;;;;;7.13;5.78;;;;;;;13.22;67.41;95478.53;5011123;28;20304;-66
2023/05/14 07:41:50;;;;;;;6.70;5.88;;;;;;;13.08;67.43;95482.56;5017282;28;20349;-65
2023/05/14 07:44:15;;;;;;;7.50;5.65;;;;;;;13.13;67.27;95469.72;5009164;28;20218;-67
2023/05/14 07:46:41;;;;;;;7.25;5.50;;;;;;;13.06;67.79;95481.88;5012752;28;20247;-66
2023/05/14 07:49:06;;;;;;;6.47;5.82;;;;;;;13.15;68.02;95482.75;5014866;28;20217;-65
2023/05/14 07:51:32;;;;;;;7.75;5.75;;;;;;;12.99;68.48;95476.41;5017145;28;20759;-66
2023/05/14 07:53:57;;;;;;;7.50;5.70;;;;;;;13.12;68.03;95477.78;5017333;28;20220;-66
2023/05/14 07:56:23;;;;;;;6.97;6.07;;;;;;;13.06;69.16;95497.72;5015143;28;20209;-67
2023/05/14 07:58:49;;;;;;;6.63;6.03;;;;;;;13.05;68.98;95501.38;5015302;28;20272;-67
2023/05/14 08:01:15;;;;;;;7.47;6.13;;;;;;;13.07;68.78;95499.41;5026637;28;20301;-67
2023/05/14 08:03:40;;;;;;;7.35;5.35;;;;;;;13.05;69.10;95480.25;5014981;28;20297;-66
2023/05/14 08:06:06;;;;;;;8.48;5.57;;;;;;;13.19;67.81;95492.88;5016884;28;20226;-65
2023/05/14 08:08:31;;;;;;;6.45;5.45;;;;;;;13.12;68.37;95489.19;5015097;28;20225;-67
2023/05/14 08:10:57;;;;;;;7.05;5.00;;;;;;;13.14;68.33;95479.28;5017267;28;20192;-66
2023/05/14 08:13:22;;;;;;;7.07;5.80;;;;;;;13.14;68.33;95489.84;5019770;28;20288;-66
2023/05/14 08:15:48;;;;;;;8.93;5.50;;;;;;;13.20;67.54;95486.63;5012990;28;20230;-65
2023/05/14 08:18:13;;;;;;;6.10;5.50;;;;;;;13.30;68.04;95483.06;5016970;28;20969;-66
2023/05/14 08:20:39;;;;;;;6.75;5.95;;;;;;;13.23;68.21;95472.25;5013136;28;20229;-66
2023/05/14 08:23:06;;;;;;;6.50;5.80;;;;;;;12.98;68.55;95464.19;5013526;28;20224;-67
2023/05/14 08:25:31;;;;;;;5.93;5.10;;;;;;;13.14;68.39;95470.56;5009355;28;20444;-66
2023/05/14 08:27:58;;;;;;;6.07;5.47;;;;;;;13.22;67.90;95455.56;5010642;28;20232;-66
2023/05/14 08:30:24;;;;;;;6.78;4.97;;;;;;;13.13;68.48;95464.44;5014100;28;20279;-67
2023/05/14 08:32:49;;;;;;;7.70;5.72;;;;;;;13.29;67.85;95453.19;5010789;28;20661;-67
2023/05/14 08:35:18;;;;;;;7.50;5.47;;;;;;;13.09;69.23;95465.72;5008522;28;20221;-66
2023/05/14 08:37:44;;;;;;;6.18;5.13;;;;;;;13.35;68.00;95465.75;5034926;28;20301;-66
2023/05/14 08:40:11;;;;;;;7.45;6.63;;;;;;;13.07;68.16;95457.16;5019894;28;20189;-66
2023/05/14 08:42:41;;;;;;;6.60;5.90;;;;;;;13.16;69.38;95450.13;5017327;28;20715;-66
2023/05/14 08:45:17;;;;;;;6.25;5.65;;;;;;;13.44;68.42;95451.59;5007058;28;20241;-66
2023/05/14 08:47:48;;;;;;;6.45;5.65;;;;;;;13.53;68.31;95441.91;5031291;28;20220;-68
2023/05/14 08:50:13;;;;;;;5.78;5.28;;;;;;;13.37;68.21;95432.09;5030299;28;20222;-65
2023/05/14 08:52:39;;;;;;;6.70;6.13;;;;;;;13.45;68.66;95442.69;5015175;28;20200;-65
2023/05/14 08:55:05;;;;;;;5.60;5.05;;;;;;;13.45;67.83;95453.25;5013251;28;20304;-66
2023/05/14 08:57:32;;;;;;;5.97;5.38;;;;;;;13.41;67.14;95435.22;5008423;28;20579;-67
2023/05/14 08:59:57;;;;;;;6.22;5.63;;;;;;;13.25;68.54;95431.50;5032018;28;20218;-67
2023/05/14 09:02:29;;;;;;;5.65;5.03;;;;;;;13.09;68.78;95433.22;5017515;28;20853;-67
2023/05/14 09:04:57;;;;;;;5.82;5.32;;;;;;;12.99;68.75;95430.69;5016694;28;20233;-67
2023/05/14 09:07:23;;;;;;;6.85;6.13;;;;;;;12.89;69.94;95445.84;5032504;28;20220;-68
2023/05/14 09:09:50;;;;;;;7.90;5.25;;;;;;;13.00;69.14;95435.00;5019071;28;20259;-68
2023/05/14 09:12:16;;;;;;;5.97;5.20;;;;;;;13.04;69.25;95444.25;5010406;28;20228;-67
2023/05/14 09:14:41;;;;;;;6.57;5.70;;;;;;;13.06;69.07;95442.28;5015227;28;20270;-67
2023/05/14 09:17:07;;;;;;;6.57;5.97;;;;;;;13.29;68.26;95428.59;5015775;28;20279;-67
2023/05/14 09:19:32;;;;;;;9.07;5.70;;;;;;;13.42;68.21;95439.53;5021168;28;20197;-67
2023/05/14 09:21:58;;;;;;;6.38;5.78;;;;;;;13.59;67.53;95443.88;5019182;28;20245;-67
2023/05/14 09:24:25;;;;;;;9.32;6.18;;;;;;;13.54;67.72;95438.25;5031707;28;20218;-67
2023/05/14 09:26:57;;;;;;;8.80;5.97;;;;;;;13.55;67.71;95455.78;5018911;28;20216;-67
2023/05/14 09:29:27;;;;;;;7.65;5.75;;;;;;;13.63;68.13;95436.47;5015142;28;20214;-67
2023/05/14 09:31:53;;;;;;;5.80;5.20;;;;;;;13.50;67.43;95420.22;5014811;28;20236;-67
2023/05/14 09:34:31;;;;;;;7.28;5.90;;;;;;;13.57;67.69;95419.44;5034804;28;20190;-67
2023/05/14 09:37:01;;;;;;;7.53;5.30;;;;;;;13.65;67.07;95423.91;5012772;28;20241;-67
2023/05/14 09:39:27;;;;;;;5.78;5.28;;;;;;;13.48;67.31;95433.63;5013557;28;20566;-67
2023/05/14 09:41:53;;;;;;;5.93;5.32;;;;;;;13.49;67.32;95429.16;5035778;28;20232;-67
2023/05/14 09:44:20;;;;;;;6.72;6.05;;;;;;;13.49;67.46;95408.84;5018675;28;20225;-68
2023/05/14 09:46:46;;;;;;;5.93;5.28;;;;;;;13.41;67.45;95407.00;5019709;28;20185;-69
2023/05/14 09:49:12;;;;;;;6.50;5.68;;;;;;;13.57;66.74;95398.28;5035280;28;20189;-69
2023/05/14 09:51:38;;;;;;;6.50;5.35;;;;;;;13.46;67.34;95410.00;5016105;28;20288;-68
2023/05/14 09:54:04;;;;;;;6.13;5.53;;;;;;;13.52;67.17;95405.06;5016464;28;20214;-67
2023/05/14 09:56:31;;;;;;;7.15;6.22;;;;;;;13.64;67.04;95398.50;5016567;28;20335;-67
2023/05/14 09:58:57;;;;;;;6.75;6.15;;;;;;;13.74;66.43;95411.56;5015194;28;20178;-67
2023/05/14 10:01:23;;;;;;;6.80;6.18;;;;;;;13.71;66.45;95411.88;5030847;28;20196;-67
2023/05/14 10:03:49;;;;;;;6.75;6.15;;;;;;;13.77;66.78;95406.78;5029970;28;20241;-66
2023/05/14 10:06:18;;;;;;;6.78;6.18;;;;;;;13.63;66.91;95384.47;5016545;28;20357;-67
2023/05/14 10:08:45;;;;;;;7.40;6.40;;;;;;;13.60;66.99;95379.47;5020205;28;20307;-68
2023/05/14 10:11:24;;;;;;;6.82;6.22;;;;;;;13.51;67.96;95380.47;5016405;28;20222;-67
2023/05/14 10:14:25;;;;;;;7.03;6.43;;;;;;;13.57;67.60;95379.81;5016892;28;20182;-67
2023/05/14 10:16:52;;;;;;;6.63;5.80;;;;;;;13.43;67.50;95377.78;5019439;28;20192;-69
2023/05/14 10:19:21;;;;;;;7.43;6.65;;;;;;;13.47;67.73;95365.91;5017080;28;20189;-68
2023/05/14 10:21:52;;;;;;;10.88;6.15;;;;;;;13.43;67.24;95359.31;5016003;28;20226;-69
2023/05/14 10:24:18;;;;;;;8.48;6.45;;;;;;;13.46;67.53;95349.22;5019747;28;20241;-67
2023/05/14 10:26:44;;;;;;;6.60;6.00;;;;;;;13.48;67.95;95356.19;5011758;28;20221;-70
2023/05/14 10:29:10;;;;;;;8.15;6.28;;;;;;;13.45;68.01;95378.47;4995299;28;20221;-68
2023/05/14 10:31:50;;;;;;;7.22;5.47;;;;;;;13.41;67.86;95387.69;5018625;28;20328;-70
2023/05/14 10:34:37;;;;;;;6.68;6.07;;;;;;;13.35;67.90;95385.69;5033907;28;20220;-70
2023/05/14 10:37:05;;;;;;;7.20;6.50;;;;;;;13.25;68.55;95370.75;5029272;28;20236;-68
2023/05/14 10:39:40;;;;;;;6.78;6.18;;;;;;;13.15;69.20;95375.34;5018074;28;20244;-68
2023/05/14 10:42:07;;;;;;;7.55;6.85;;;;;;;13.33;68.51;95358.59;5015963;28;20219;-69
2023/05/14 10:44:34;;;;;;;7.22;6.53;;;;;;;13.50;68.66;95352.41;5016926;28;20256;-70
2023/05/14 10:47:01;;;;;;;9.35;7.78;;;;;;;13.49;69.06;95357.81;5013259;28;20206;-70
2023/05/14 10:49:26;;;;;;;9.18;6.90;;;;;;;13.33;69.96;95366.53;5036248;28;20256;-68
2023/05/14 10:51:52;;;;;;;7.90;7.10;;;;;;;13.32;70.38;95363.06;5017756;28;20319;-68
2023/05/14 10:54:18;;;;;;;7.38;6.63;;;;;;;13.34;69.93;95355.81;5019922;28;20218;-70
2023/05/14 10:56:46;;;;;;;7.20;6.55;;;;;;;13.37;70.04;95352.84;5016370;28;20319;-68
2023/05/14 10:59:12;;;;;;;7.88;7.10;;;;;;;13.62;69.57;95361.66;5010803;28;20259;-69
2023/05/14 11:01:41;;;;;;;6.65;6.07;;;;;;;13.54;69.51;95350.25;5016124;28;20181;-71
2023/05/14 11:04:08;;;;;;;6.78;5.90;;;;;;;13.69;68.14;95348.63;5027093;28;20325;-69
2023/05/14 11:06:36;;;;;;;5.15;4.75;;;;;;;13.64;67.25;95340.38;5026298;28;20283;-68
2023/05/14 11:09:02;;;;;;;8.88;5.32;;;;;;;13.64;67.18;95351.75;5015300;28;20222;-70
2023/05/14 11:11:28;;;;;;;5.97;5.47;;;;;;;13.65;67.97;95352.56;5015700;28;20222;-70
2023/05/14 11:13:54;;;;;;;8.60;6.60;;;;;;;13.63;68.21;95360.69;5016815;28;20224;-68
2023/05/14 11:16:22;;;;;;;7.10;6.50;;;;;;;13.59;68.50;95353.22;5032704;28;20209;-69
2023/05/14 11:18:52;;;;;;;7.18;6.40;;;;;;;13.53;69.43;95367.91;5012983;28;20225;-69
2023/05/14 11:21:18;;;;;;;5.03;4.53;;;;;;;13.65;68.05;95363.16;5017848;28;20256;-67
2023/05/14 11:23:45;;;;;;;5.95;5.43;;;;;;;13.37;67.25;95367.88;5014477;28;20295;-69
2023/05/14 11:26:11;;;;;;;6.88;6.32;;;;;;;13.53;68.40;95362.63;5028880;28;20229;-69
2023/05/14 11:28:37;;;;;;;7.20;6.60;;;;;;;13.66;68.96;95357.72;5010765;28;20196;-69
2023/05/14 11:31:04;;;;;;;8.23;7.53;;;;;;;13.55;69.33;95354.53;5008355;28;20221;-69